Time;durP1;ratioP1;P1;durP2;ratioP2;P2;SDS_P1;SDS_P2;PMS_P1;PMS_P2;Temp;Humidity;BMP_temperature;BMP_pressure;BME280_temperature;BME280_humidity;BME280_pressure;Samples;Min_cycle;Max_cycle;Signal;HPM_P1;HPM_P2
2022/03/15 00:00:05;;;;;;;0.67;0.67;;;3.20;99.90;;;;;;5063565;28;20939;-86
2022/03/15 00:02:32;;;;;;;1.80;0.60;;;3.10;99.90;;;;;;5063634;28;20488;-88
2022/03/15 00:04:59;;;;;;;0.60;0.40;;;3.20;99.90;;;;;;5069392;28;20799;-89
2022/03/15 00:07:26;;;;;;;0.70;0.33;;;3.10;99.90;;;;;;5065756;28;20513;-85
2022/03/15 00:09:53;;;;;;;0.30;0.23;;;3.00;99.90;;;;;;5063626;28;20526;-85
2022/03/15 00:12:20;;;;;;;0.40;0.30;;;3.00;99.90;;;;;;5066721;28;20456;-85
2022/03/15 00:14:48;;;;;;;0.30;0.10;;;2.80;99.90;;;;;;5064173;28;21010;-85
2022/03/15 00:17:16;;;;;;;0.90;0.90;;;2.70;99.90;;;;;;5069645;28;20523;-84
2022/03/15 00:19:43;;;;;;;1.03;1.03;;;2.70;99.90;;;;;;5069041;28;20459;-84
2022/03/15 00:22:10;;;;;;;0.30;0.20;;;2.70;99.90;;;;;;5064721;28;20519;-85
2022/03/15 00:24:37;;;;;;;0.30;0.10;;;2.70;99.90;;;;;;5068152;28;20452;-82
2022/03/15 00:27:04;;;;;;;0.30;0.10;;;2.80;99.90;;;;;;5062014;28;21020;-85
2022/03/15 00:29:32;;;;;;;0.40;0.37;;;2.90;99.90;;;;;;5075518;28;20452;-82
2022/03/15 00:31:59;;;;;;;3.40;1.23;;;2.90;99.90;;;;;;5069897;28;20461;-83
2022/03/15 00:34:27;;;;;;;0.30;0.20;;;2.80;99.90;;;;;;5070660;28;20447;-86
2022/03/15 00:36:54;;;;;;;1.37;0.40;;;2.80;99.90;;;;;;5069831;28;20459;-83
2022/03/15 00:39:21;;;;;;;0.30;0.20;;;2.80;99.90;;;;;;5069528;28;20460;-82
2022/03/15 00:41:48;;;;;;;0.30;0.20;;;2.80;99.90;;;;;;5067804;28;20512;-84
2022/03/15 00:44:15;;;;;;;0.40;0.37;;;2.80;99.90;;;;;;5069232;28;21063;-83
2022/03/15 00:46:42;;;;;;;0.87;0.87;;;2.80;99.90;;;;;;5067112;28;20804;-84
2022/03/15 00:49:09;;;;;;;0.30;0.20;;;2.80;99.90;;;;;;5070506;28;20946;-85
2022/03/15 00:51:37;;;;;;;0.30;0.20;;;2.70;99.90;;;;;;5069584;28;20459;-87
2022/03/15 00:54:04;;;;;;;1.07;0.33;;;2.70;99.90;;;;;;5069618;28;22167;-84
2022/03/15 00:56:31;;;;;;;0.30;0.10;;;2.60;99.90;;;;;;5068163;28;20469;-85
2022/03/15 00:58:58;;;;;;;3.60;0.87;;;2.60;99.90;;;;;;5067597;28;20447;-84
2022/03/15 01:01:25;;;;;;;0.30;0.20;;;2.60;99.90;;;;;;5063844;28;20475;-85
2022/03/15 01:03:52;;;;;;;1.03;0.37;;;2.60;99.90;;;;;;5072967;28;20897;-85
2022/03/15 01:06:19;;;;;;;0.80;0.73;;;2.50;99.90;;;;;;5070643;28;20535;-85
2022/03/15 01:08:51;;;;;;;0.30;0.10;;;2.50;99.90;;;;;;5066195;28;20892;-86
2022/03/15 01:11:25;;;;;;;0.50;0.50;;;2.60;99.90;;;;;;5068284;28;21015;-85
2022/03/15 01:13:52;;;;;;;0.30;0.20;;;2.50;99.90;;;;;;5068041;28;20506;-85
2022/03/15 01:16:19;;;;;;;2.20;0.47;;;2.40;99.90;;;;;;5071132;28;20452;-85
2022/03/15 01:18:46;;;;;;;0.53;0.53;;;2.30;99.90;;;;;;5070638;28;20479;-88
2022/03/15 01:21:14;;;;;;;0.87;0.87;;;2.20;99.90;;;;;;5069059;28;20472;-88
2022/03/15 01:23:41;;;;;;;0.77;0.77;;;2.20;99.90;;;;;;5067860;28;20484;-85
2022/03/15 01:26:10;;;;;;;0.80;0.80;;;2.10;99.90;;;;;;5067906;28;20452;-85
2022/03/15 01:28:37;;;;;;;0.30;0.10;;;2.20;99.90;;;;;;5069049;28;20939;-87
2022/03/15 01:31:04;;;;;;;0.30;0.20;;;2.20;99.90;;;;;;5069049;28;20969;-85
2022/03/15 01:33:31;;;;;;;0.30;0.20;;;2.30;99.90;;;;;;5068327;28;20453;-85
2022/03/15 01:35:59;;;;;;;0.30;0.20;;;2.30;99.90;;;;;;5067225;28;20514;-88
2022/03/15 01:38:26;;;;;;;0.60;0.20;;;2.30;99.90;;;;;;5064978;28;20980;-85
2022/03/15 01:40:53;;;;;;;0.30;0.10;;;2.30;99.90;;;;;;5067283;28;20452;-85
2022/03/15 01:43:21;;;;;;;0.30;0.17;;;2.30;99.90;;;;;;5069179;28;20540;-84
2022/03/15 01:45:49;;;;;;;0.40;0.30;;;2.30;99.90;;;;;;5070045;28;20521;-85
2022/03/15 01:48:16;;;;;;;0.30;0.10;;;2.30;99.90;;;;;;5063757;28;21002;-85
2022/03/15 01:50:43;;;;;;;0.30;0.30;;;2.30;99.90;;;;;;5071715;28;21330;-84
2022/03/15 01:53:10;;;;;;;0.30;0.20;;;2.30;99.90;;;;;;5068633;28;20525;-84
2022/03/15 01:55:37;;;;;;;0.30;0.10;;;2.30;99.90;;;;;;5068907;28;20456;-84
2022/03/15 01:58:04;;;;;;;0.30;0.20;;;2.30;99.90;;;;;;5062552;28;20472;-85
2022/03/15 02:00:32;;;;;;;0.30;0.10;;;2.30;99.90;;;;;;5065565;28;20464;-85
2022/03/15 02:02:59;;;;;;;0.40;0.30;;;2.40;99.90;;;;;;5069479;28;20491;-85
2022/03/15 02:05:26;;;;;;;2.20;1.07;;;2.30;99.90;;;;;;5070203;28;20491;-84
2022/03/15 02:07:53;;;;;;;0.63;0.63;;;2.30;99.90;;;;;;5062126;28;20477;-82
2022/03/15 02:10:20;;;;;;;0.40;0.30;;;2.30;99.90;;;;;;5068797;28;20505;-86
2022/03/15 02:12:48;;;;;;;0.30;0.10;;;2.30;99.90;;;;;;5068142;28;20452;-84
2022/03/15 02:15:16;;;;;;;0.60;0.60;;;2.30;99.90;;;;;;5066759;28;20502;-83
2022/03/15 02:17:45;;;;;;;0.30;0.13;;;2.30;99.90;;;;;;5068010;28;20990;-83
2022/03/15 02:20:15;;;;;;;0.30;0.20;;;2.30;99.90;;;;;;5069119;28;20452;-83
2022/03/15 02:22:42;;;;;;;0.40;0.30;;;2.30;99.90;;;;;;5068178;28;20502;-87
2022/03/15 02:25:09;;;;;;;0.30;0.20;;;2.40;99.90;;;;;;5070295;28;20871;-84
2022/03/15 02:27:36;;;;;;;0.30;0.10;;;2.30;99.90;;;;;;5064856;28;20452;-84
2022/03/15 02:30:05;;;;;;;0.30;0.10;;;2.40;99.90;;;;;;5063154;28;20829;-83
2022/03/15 02:32:32;;;;;;;0.30;0.10;;;2.30;99.90;;;;;;5063902;28;20452;-83
2022/03/15 02:34:59;;;;;;;0.30;0.20;;;2.20;99.90;;;;;;5068890;28;20463;-83
2022/03/15 02:37:28;;;;;;;0.30;0.20;;;2.20;99.90;;;;;;5064209;28;20459;-83
2022/03/15 02:39:55;;;;;;;2.30;0.93;;;2.20;99.90;;;;;;5064805;28;21054;-83
2022/03/15 02:42:22;;;;;;;0.30;0.10;;;2.20;99.90;;;;;;5067281;28;20518;-83
2022/03/15 02:44:49;;;;;;;0.30;0.20;;;2.30;99.90;;;;;;5064785;28;20483;-84
2022/03/15 02:47:16;;;;;;;0.47;0.47;;;2.30;99.90;;;;;;5067224;28;20573;-83
2022/03/15 02:49:43;;;;;;;0.40;0.30;;;2.20;99.90;;;;;;5070095;28;20506;-83
2022/03/15 02:52:10;;;;;;;0.30;0.20;;;2.20;99.90;;;;;;5067070;28;20519;-86
2022/03/15 02:54:41;;;;;;;0.30;0.10;;;2.20;99.90;;;;;;5062176;28;20935;-84
2022/03/15 02:57:10;;;;;;;0.30;0.20;;;2.10;99.90;;;;;;5068752;28;20448;-83
2022/03/15 02:59:39;;;;;;;0.93;0.93;;;2.10;99.90;;;;;;5065224;28;21027;-83
2022/03/15 03:02:08;;;;;;;0.30;0.10;;;2.00;99.90;;;;;;5066963;28;20829;-83
2022/03/15 03:04:35;;;;;;;0.30;0.10;;;1.90;99.90;;;;;;5062455;28;20759;-83
2022/03/15 03:07:02;;;;;;;0.30;0.10;;;1.90;99.90;;;;;;5069752;28;20494;-83
2022/03/15 03:09:29;;;;;;;0.40;0.20;;;1.80;99.90;;;;;;5069344;28;20486;-85
2022/03/15 03:11:58;;;;;;;0.30;0.10;;;1.90;99.90;;;;;;5066539;28;20470;-86
2022/03/15 03:14:25;;;;;;;0.47;0.47;;;1.90;99.90;;;;;;5068911;28;20563;-83
2022/03/15 03:16:52;;;;;;;0.40;0.40;;;2.00;99.90;;;;;;5062198;28;20513;-83
2022/03/15 03:19:20;;;;;;;1.67;1.23;;;1.90;99.90;;;;;;5060707;28;20473;-84
2022/03/15 03:21:48;;;;;;;0.30;0.10;;;2.00;99.90;;;;;;5064241;28;21299;-83
2022/03/15 03:24:19;;;;;;;0.60;0.60;;;2.00;99.90;;;;;;5067344;28;20529;-84
2022/03/15 03:26:46;;;;;;;0.30;0.20;;;2.00;99.90;;;;;;5063462;28;20565;-83
2022/03/15 03:29:15;;;;;;;0.40;0.30;;;2.00;99.90;;;;;;5065704;28;20542;-83
2022/03/15 03:31:43;;;;;;;0.40;0.33;;;2.10;99.90;;;;;;5061709;28;20535;-83
2022/03/15 03:34:11;;;;;;;1.23;1.13;;;2.00;99.90;;;;;;5066359;28;20949;-84
2022/03/15 03:36:39;;;;;;;0.97;0.87;;;2.00;99.90;;;;;;5066874;28;20939;-83
2022/03/15 03:39:07;;;;;;;0.30;0.20;;;2.00;99.90;;;;;;5062705;28;20518;-84
2022/03/15 03:41:35;;;;;;;0.30;0.20;;;2.00;99.90;;;;;;5065286;28;20497;-82
2022/03/15 03:44:02;;;;;;;0.30;0.10;;;2.00;99.90;;;;;;5065579;28;21013;-82
2022/03/15 03:46:31;;;;;;;0.30;0.10;;;2.00;99.90;;;;;;5068568;28;20947;-86
2022/03/15 03:48:58;;;;;;;0.30;0.20;;;1.90;99.90;;;;;;5062353;28;20513;-83
2022/03/15 03:51:25;;;;;;;0.90;0.90;;;2.00;99.90;;;;;;5067966;28;20456;-86
2022/03/15 03:53:52;;;;;;;0.30;0.10;;;2.10;99.90;;;;;;5060958;28;20468;-83
2022/03/15 03:56:19;;;;;;;0.30;0.20;;;2.20;99.90;;;;;;5070203;28;20520;-86
2022/03/15 03:58:46;;;;;;;2.63;2.10;;;2.20;99.90;;;;;;5071523;28;20875;-83
2022/03/15 04:01:13;;;;;;;0.33;0.23;;;2.20;99.90;;;;;;5071986;28;20934;-83
2022/03/15 04:03:42;;;;;;;0.30;0.10;;;2.10;99.90;;;;;;5067883;28;20482;-85
2022/03/15 04:06:11;;;;;;;0.40;0.30;;;2.10;99.90;;;;;;5068406;28;20458;-84
2022/03/15 04:08:38;;;;;;;0.70;0.30;;;2.10;99.90;;;;;;5065107;28;20570;-83
2022/03/15 04:11:05;;;;;;;0.97;0.67;;;2.10;99.90;;;;;;5071421;28;20451;-85
2022/03/15 04:13:32;;;;;;;1.43;1.37;;;2.10;99.90;;;;;;5068656;28;20500;-83
2022/03/15 04:15:59;;;;;;;0.53;0.47;;;2.10;99.90;;;;;;5073235;28;20455;-83
2022/03/15 04:18:26;;;;;;;0.40;0.40;;;2.10;99.90;;;;;;5071073;28;20488;-82
2022/03/15 04:20:54;;;;;;;0.30;0.20;;;2.20;99.90;;;;;;5078899;28;20464;-82
2022/03/15 04:23:21;;;;;;;0.30;0.10;;;2.20;99.90;;;;;;5068513;28;20929;-83
2022/03/15 04:25:51;;;;;;;0.30;0.20;;;2.30;99.90;;;;;;5062903;28;20447;-83
2022/03/15 04:28:18;;;;;;;0.30;0.10;;;2.30;99.90;;;;;;5066350;28;20493;-83
2022/03/15 04:30:45;;;;;;;0.30;0.13;;;2.20;99.90;;;;;;5065783;28;20598;-82
2022/03/15 04:33:12;;;;;;;0.30;0.20;;;2.20;99.90;;;;;;5069446;28;20581;-82
2022/03/15 04:35:39;;;;;;;0.30;0.20;;;2.20;99.90;;;;;;5069515;28;20474;-85
2022/03/15 04:38:07;;;;;;;0.70;0.70;;;2.20;99.90;;;;;;5068246;28;20472;-84
2022/03/15 04:40:35;;;;;;;2.50;1.40;;;2.20;99.90;;;;;;5070033;28;20900;-83
2022/03/15 04:43:03;;;;;;;0.30;0.20;;;2.30;99.90;;;;;;5071090;28;20944;-83
2022/03/15 04:45:29;;;;;;;0.30;0.20;;;2.30;99.90;;;;;;5070900;28;20483;-83
2022/03/15 04:47:56;;;;;;;0.30;0.10;;;2.40;99.90;;;;;;5068845;28;20479;-82
2022/03/15 04:50:24;;;;;;;0.30;0.10;;;2.50;99.90;;;;;;5065864;28;20520;-85
2022/03/15 04:52:51;;;;;;;0.30;0.10;;;2.50;99.90;;;;;;5068558;28;20961;-83
2022/03/15 04:55:19;;;;;;;0.93;0.93;;;2.50;99.90;;;;;;5072193;28;20938;-83
2022/03/15 04:57:46;;;;;;;0.30;0.20;;;2.50;99.90;;;;;;5066806;28;20459;-83
2022/03/15 05:00:14;;;;;;;0.30;0.10;;;2.60;99.90;;;;;;5067393;28;21995;-84
2022/03/15 05:02:41;;;;;;;0.30;0.10;;;2.50;99.90;;;;;;5071289;28;20509;-86
2022/03/15 05:05:09;;;;;;;0.30;0.13;;;2.40;99.90;;;;;;5068004;28;20619;-83
2022/03/15 05:07:36;;;;;;;0.30;0.13;;;2.30;99.90;;;;;;5064135;28;20460;-85
2022/03/15 05:12:50;;;;;;;0.40;0.30;;;2.10;99.90;;;;;;5069933;28;20457;-84
2022/03/15 05:15:17;;;;;;;3.33;1.17;;;2.10;99.90;;;;;;5065933;28;20453;-83
2022/03/15 05:17:44;;;;;;;0.30;0.30;;;2.20;99.90;;;;;;5067823;28;20966;-83
2022/03/15 05:20:12;;;;;;;0.30;0.13;;;2.30;99.90;;;;;;5062001;28;20516;-82
2022/03/15 05:22:39;;;;;;;1.10;0.30;;;2.20;99.90;;;;;;5070436;28;20452;-83
2022/03/15 05:25:07;;;;;;;0.30;0.10;;;2.10;99.90;;;;;;5066747;28;20590;-83
2022/03/15 05:27:35;;;;;;;0.93;0.70;;;2.00;99.90;;;;;;5067492;28;20461;-83
2022/03/15 05:30:05;;;;;;;0.30;0.20;;;2.00;99.90;;;;;;5068517;28;20480;-85
2022/03/15 05:32:32;;;;;;;0.30;0.10;;;1.90;99.90;;;;;;5071613;28;20464;-85
2022/03/15 05:34:59;;;;;;;0.30;0.20;;;2.00;99.90;;;;;;5075400;28;20509;-83
2022/03/15 05:37:27;;;;;;;0.30;0.10;;;2.00;99.90;;;;;;5064149;28;20475;-83
2022/03/15 05:39:54;;;;;;;1.57;0.97;;;2.00;99.90;;;;;;5069348;28;20447;-83
2022/03/15 05:42:21;;;;;;;0.30;0.20;;;2.00;99.90;;;;;;5065608;28;20460;-84
2022/03/15 05:44:49;;;;;;;0.80;0.40;;;2.00;99.90;;;;;;5064802;28;20549;-83
2022/03/15 05:47:17;;;;;;;0.30;0.10;;;2.10;99.90;;;;;;5071825;28;20459;-82
2022/03/15 05:49:44;;;;;;;0.30;0.20;;;2.20;99.90;;;;;;5064512;28;20913;-86
2022/03/15 05:52:11;;;;;;;0.30;0.10;;;2.50;99.90;;;;;;5066858;28;20545;-82
2022/03/15 05:54:38;;;;;;;0.30;0.10;;;2.70;99.90;;;;;;5068029;28;20463;-83
2022/03/15 05:57:05;;;;;;;0.70;0.67;;;2.80;99.90;;;;;;5068624;28;20459;-83
2022/03/15 05:59:32;;;;;;;0.30;0.10;;;2.90;99.90;;;;;;5058822;28;20460;-89
2022/03/15 06:01:59;;;;;;;0.30;0.10;;;3.00;99.90;;;;;;5067768;28;20472;-83
2022/03/15 06:04:27;;;;;;;1.07;1.07;;;3.10;99.90;;;;;;5064399;28;21243;-85
2022/03/15 06:06:55;;;;;;;0.40;0.30;;;3.20;99.90;;;;;;5070871;28;20502;-82
2022/03/15 06:09:23;;;;;;;0.40;0.40;;;3.30;99.90;;;;;;5053322;28;20492;-84
2022/03/15 06:11:51;;;;;;;0.40;0.30;;;3.40;99.90;;;;;;5050793;28;20567;-83
2022/03/15 06:14:19;;;;;;;0.30;0.30;;;3.50;99.90;;;;;;5052644;28;20951;-85
2022/03/15 06:16:46;;;;;;;0.40;0.30;;;3.60;99.90;;;;;;5060940;28;20554;-83
2022/03/15 06:19:13;;;;;;;0.30;0.20;;;3.60;99.90;;;;;;5065209;28;20476;-84
2022/03/15 06:21:41;;;;;;;0.40;0.30;;;3.60;99.90;;;;;;5077090;28;20482;-83
2022/03/15 06:24:09;;;;;;;0.30;0.10;;;3.60;99.90;;;;;;5072446;28;20517;-83
2022/03/15 06:26:36;;;;;;;0.30;0.10;;;3.70;99.90;;;;;;5062764;28;20848;-83
2022/03/15 06:29:04;;;;;;;1.23;0.40;;;3.80;99.90;;;;;;5063592;28;20444;-82
2022/03/15 06:31:32;;;;;;;0.83;0.83;;;3.90;99.90;;;;;;5065447;28;20506;-87
2022/03/15 06:33:59;;;;;;;0.60;0.47;;;4.00;99.90;;;;;;5061398;28;21035;-85
2022/03/15 06:36:26;;;;;;;0.30;0.20;;;4.10;99.90;;;;;;5059191;28;20522;-84
2022/03/15 06:38:55;;;;;;;0.30;0.10;;;4.20;99.90;;;;;;5062584;28;20464;-86
2022/03/15 06:41:22;;;;;;;0.30;0.20;;;4.20;99.90;;;;;;5069583;28;20501;-84
2022/03/15 06:43:49;;;;;;;0.30;0.20;;;4.20;99.90;;;;;;5069153;28;20505;-84
2022/03/15 06:46:16;;;;;;;0.30;0.20;;;4.30;99.90;;;;;;5068646;28;20519;-86
2022/03/15 06:48:43;;;;;;;0.97;0.93;;;4.40;99.90;;;;;;5066939;28;20460;-84
2022/03/15 06:51:09;;;;;;;0.30;0.20;;;4.50;99.90;;;;;;5066656;28;20533;-87
2022/03/15 06:53:36;;;;;;;0.30;0.20;;;4.50;99.90;;;;;;5063707;28;21027;-85
2022/03/15 06:56:05;;;;;;;0.30;0.10;;;4.70;99.90;;;;;;5050388;28;20521;-84
2022/03/15 06:58:33;;;;;;;0.30;0.20;;;4.80;99.90;;;;;;5052912;28;20471;-85
2022/03/15 07:01:00;;;;;;;0.40;0.30;;;4.90;99.90;;;;;;5050507;28;20455;-85
2022/03/15 07:03:27;;;;;;;0.30;0.20;;;4.90;99.90;;;;;;5066320;28;20869;-82
2022/03/15 07:05:54;;;;;;;0.50;0.50;;;4.90;99.90;;;;;;5076922;28;20544;-84
2022/03/15 07:08:21;;;;;;;0.30;0.10;;;4.90;99.90;;;;;;5054283;28;20513;-84
2022/03/15 07:10:47;;;;;;;0.30;0.20;;;5.00;99.90;;;;;;5050936;28;20453;-84
2022/03/15 07:13:16;;;;;;;0.30;0.20;;;5.00;99.90;;;;;;5050091;28;20457;-86
2022/03/15 07:15:43;;;;;;;0.30;0.10;;;5.10;99.90;;;;;;5058587;28;20518;-92
2022/03/15 07:18:10;;;;;;;0.30;0.10;;;5.20;99.90;;;;;;5062263;28;21015;-84
2022/03/15 07:20:37;;;;;;;0.40;0.37;;;5.40;99.90;;;;;;5053436;28;20456;-85
2022/03/15 07:23:04;;;;;;;0.40;0.33;;;5.50;99.90;;;;;;5066742;28;20459;-87
2022/03/15 07:25:31;;;;;;;0.40;0.40;;;5.50;99.90;;;;;;5054580;28;20983;-84
2022/03/15 07:27:58;;;;;;;0.60;0.53;;;5.40;99.90;;;;;;5077893;28;20489;-84
2022/03/15 07:30:27;;;;;;;0.30;0.10;;;5.50;99.90;;;;;;5065261;28;20464;-86
2022/03/15 07:32:54;;;;;;;1.00;0.80;;;5.70;99.90;;;;;;5062341;28;20942;-82
2022/03/15 07:35:21;;;;;;;0.50;0.50;;;5.80;99.90;;;;;;5055763;28;20548;-84
2022/03/15 07:37:52;;;;;;;1.30;0.30;;;6.00;99.90;;;;;;5062068;28;20455;-85
2022/03/15 07:40:19;;;;;;;0.40;0.30;;;6.20;99.90;;;;;;5066227;28;20551;-84
2022/03/15 07:42:48;;;;;;;0.30;0.20;;;6.30;99.20;;;;;;5069878;28;20860;-84
2022/03/15 07:45:15;;;;;;;0.30;0.10;;;6.40;98.80;;;;;;5055088;28;20885;-84
2022/03/15 07:47:43;;;;;;;0.93;0.20;;;6.20;98.80;;;;;;5068252;28;21302;-84
2022/03/15 07:50:10;;;;;;;0.30;0.20;;;6.50;99.10;;;;;;5069275;28;20452;-87
2022/03/15 07:52:37;;;;;;;0.50;0.20;;;6.60;98.30;;;;;;5062885;28;20535;-86
2022/03/15 07:55:05;;;;;;;1.30;1.20;;;6.80;98.00;;;;;;5055811;28;20462;-84
2022/03/15 07:57:32;;;;;;;0.30;0.10;;;6.90;98.00;;;;;;5066813;28;20447;-85
2022/03/15 07:59:59;;;;;;;0.60;0.43;;;7.00;97.70;;;;;;5069243;28;20566;-85
2022/03/15 08:02:26;;;;;;;0.30;0.20;;;6.90;97.80;;;;;;5063415;28;20469;-84
2022/03/15 08:04:55;;;;;;;0.37;0.20;;;6.60;98.20;;;;;;5070591;28;20476;-87
2022/03/15 08:07:22;;;;;;;0.77;0.30;;;6.70;97.90;;;;;;5073768;28;20494;-86
2022/03/15 08:09:50;;;;;;;0.30;0.10;;;6.80;97.80;;;;;;5054917;28;20454;-84
2022/03/15 08:12:17;;;;;;;1.90;1.17;;;7.10;97.00;;;;;;5068871;28;20463;-84
2022/03/15 08:14:45;;;;;;;0.97;0.83;;;7.30;96.80;;;;;;5062754;28;20600;-85
2022/03/15 08:17:12;;;;;;;0.40;0.30;;;7.30;96.60;;;;;;5061490;28;20570;-86
2022/03/15 08:19:39;;;;;;;0.30;0.20;;;7.40;96.40;;;;;;5056186;28;20443;-86
2022/03/15 08:22:07;;;;;;;0.30;0.10;;;7.60;95.80;;;;;;5065263;28;20472;-87
2022/03/15 08:24:35;;;;;;;0.77;0.77;;;7.50;95.80;;;;;;5071342;28;20489;-86
2022/03/15 08:27:02;;;;;;;0.30;0.10;;;7.70;95.70;;;;;;5063957;28;20521;-84
2022/03/15 08:29:31;;;;;;;1.07;1.03;;;8.00;95.20;;;;;;5062763;28;20467;-83
2022/03/15 08:31:58;;;;;;;0.30;0.27;;;8.10;94.20;;;;;;5049513;28;20459;-84
2022/03/15 08:34:25;;;;;;;0.30;0.20;;;7.70;94.60;;;;;;5053743;28;20466;-84
2022/03/15 08:36:53;;;;;;;0.70;0.70;;;7.80;95.60;;;;;;5058269;28;21059;-84
2022/03/15 08:39:23;;;;;;;0.40;0.30;;;7.80;95.80;;;;;;5063516;28;20902;-85
2022/03/15 08:41:51;;;;;;;0.30;0.20;;;8.10;95.90;;;;;;5062576;28;20458;-85
2022/03/15 08:44:18;;;;;;;3.33;0.50;;;8.10;95.20;;;;;;5071319;28;21009;-84
2022/03/15 08:46:47;;;;;;;1.67;0.63;;;8.30;94.50;;;;;;5058589;28;20488;-86
2022/03/15 08:49:15;;;;;;;0.30;0.20;;;8.40;94.80;;;;;;5060037;28;20459;-84
2022/03/15 08:51:42;;;;;;;0.70;0.60;;;8.50;94.50;;;;;;5072142;28;20449;-84
2022/03/15 08:54:09;;;;;;;0.83;0.83;;;8.50;94.30;;;;;;5066685;28;20517;-86
2022/03/15 08:56:41;;;;;;;0.80;0.80;;;8.70;94.20;;;;;;5058512;28;20531;-84
2022/03/15 08:59:09;;;;;;;0.30;0.20;;;9.00;94.00;;;;;;5065126;28;20493;-84
2022/03/15 09:01:36;;;;;;;0.50;0.50;;;9.20;92.80;;;;;;5052182;28;20447;-84
2022/03/15 09:04:03;;;;;;;0.30;0.20;;;9.40;93.20;;;;;;5064100;28;20464;-84
2022/03/15 09:06:30;;;;;;;0.30;0.20;;;9.60;93.10;;;;;;5070850;28;20532;-86
2022/03/15 09:08:59;;;;;;;0.30;0.13;;;9.70;91.90;;;;;;5059004;28;20492;-87
2022/03/15 09:11:26;;;;;;;0.53;0.53;;;9.70;92.20;;;;;;5066043;28;20575;-84
2022/03/15 09:13:55;;;;;;;0.50;0.43;;;9.90;91.90;;;;;;5060433;28;20520;-85
2022/03/15 09:16:22;;;;;;;1.13;0.60;;;10.10;90.80;;;;;;5053067;28;20453;-86
2022/03/15 09:18:49;;;;;;;1.57;0.83;;;10.10;90.30;;;;;;5065752;28;20479;-84
2022/03/15 09:21:18;;;;;;;0.30;0.20;;;10.20;90.40;;;;;;5054776;28;20452;-85
2022/03/15 09:23:45;;;;;;;1.00;1.00;;;10.10;88.60;;;;;;5066323;28;20549;-88
2022/03/15 09:26:12;;;;;;;4.20;0.57;;;10.10;88.00;;;;;;5060968;28;20573;-84
2022/03/15 09:28:41;;;;;;;0.30;0.20;;;9.80;88.90;;;;;;5060863;28;20879;-84
2022/03/15 09:31:09;;;;;;;0.40;0.23;;;9.90;89.20;;;;;;5071661;28;20447;-87
2022/03/15 09:33:36;;;;;;;0.30;0.10;;;10.00;88.40;;;;;;5070898;28;21020;-87
2022/03/15 09:36:05;;;;;;;0.40;0.20;;;10.20;88.00;;;;;;5068691;28;20503;-84
2022/03/15 09:38:33;;;;;;;0.30;0.17;;;10.40;88.40;;;;;;5071259;28;20470;-82
2022/03/15 09:41:03;;;;;;;1.03;1.03;;;10.50;88.70;;;;;;5059678;28;20487;-82
2022/03/15 09:43:36;;;;;;;0.40;0.27;;;10.30;89.10;;;;;;5064047;28;20510;-83
2022/03/15 09:46:04;;;;;;;0.57;0.40;;;10.20;89.90;;;;;;5055860;28;20483;-81
2022/03/15 09:48:34;;;;;;;0.67;0.30;;;10.00;90.20;;;;;;5064040;28;20485;-85
2022/03/15 09:51:04;;;;;;;0.80;0.30;;;9.90;90.60;;;;;;5067287;28;20448;-87
2022/03/15 09:53:35;;;;;;;0.30;0.20;;;9.70;90.70;;;;;;5069979;28;20498;-85
2022/03/15 09:56:03;;;;;;;1.13;0.57;;;9.70;90.40;;;;;;5065635;28;20506;-85
2022/03/15 09:58:30;;;;;;;1.07;0.97;;;9.60;90.50;;;;;;5068564;28;20510;-86
2022/03/15 10:00:58;;;;;;;0.30;0.20;;;9.50;90.70;;;;;;5064741;28;20471;-86
2022/03/15 10:03:26;;;;;;;0.30;0.20;;;9.50;91.20;;;;;;5056480;28;20465;-85
2022/03/15 10:05:55;;;;;;;1.70;1.60;;;9.50;90.80;;;;;;5051481;28;20485;-88
2022/03/15 10:08:22;;;;;;;0.33;0.20;;;9.40;90.40;;;;;;5064406;28;20465;-85
2022/03/15 10:10:51;;;;;;;0.40;0.40;;;9.50;90.30;;;;;;5059848;28;20471;-88
2022/03/15 10:13:18;;;;;;;2.00;1.90;;;9.50;90.30;;;;;;5052252;28;20458;-86
2022/03/15 10:15:53;;;;;;;0.30;0.20;;;9.30;90.50;;;;;;5058146;28;20483;-85
2022/03/15 10:18:20;;;;;;;0.30;0.20;;;9.30;91.00;;;;;;5053995;28;20511;-85
2022/03/15 10:20:48;;;;;;;0.37;0.23;;;9.50;91.20;;;;;;5060550;28;20457;-85
2022/03/15 10:23:18;;;;;;;0.73;0.30;;;9.50;91.20;;;;;;5067630;28;20529;-85
2022/03/15 10:25:47;;;;;;;0.30;0.20;;;9.70;90.70;;;;;;5076898;28;20527;-88
2022/03/15 10:28:15;;;;;;;0.40;0.20;;;9.90;90.00;;;;;;5064900;28;20557;-87
2022/03/15 10:30:43;;;;;;;0.37;0.30;;;10.10;89.00;;;;;;5056720;28;20939;-88
2022/03/15 10:33:10;;;;;;;0.40;0.27;;;10.10;88.80;;;;;;5059232;28;20537;-85
2022/03/15 10:35:39;;;;;;;0.30;0.20;;;10.30;86.70;;;;;;5065751;28;20555;-86
2022/03/15 10:38:07;;;;;;;0.93;0.60;;;10.30;87.20;;;;;;5065114;28;20942;-85
2022/03/15 10:40:38;;;;;;;0.30;0.20;;;10.40;87.80;;;;;;5059558;28;20465;-84
2022/03/15 10:43:06;;;;;;;0.30;0.20;;;10.20;86.90;;;;;;5052263;28;20491;-88
2022/03/15 10:45:35;;;;;;;0.40;0.20;;;10.40;86.20;;;;;;5062055;28;20506;-86
2022/03/15 10:48:04;;;;;;;1.27;0.20;;;10.50;85.70;;;;;;5060433;28;20461;-85
2022/03/15 10:50:33;;;;;;;0.40;0.30;;;10.10;85.20;;;;;;5049682;28;20518;-88
2022/03/15 10:53:08;;;;;;;0.30;0.20;;;10.20;85.80;;;;;;5062533;28;20468;-87
2022/03/15 10:55:37;;;;;;;0.40;0.30;;;10.50;85.50;;;;;;5069354;28;20450;-85
2022/03/15 10:58:06;;;;;;;0.50;0.43;;;10.70;84.40;;;;;;5062463;28;20522;-88
2022/03/15 11:00:36;;;;;;;1.47;0.40;;;11.00;84.40;;;;;;5055942;28;20468;-85
2022/03/15 11:03:09;;;;;;;0.60;0.40;;;11.20;82.90;;;;;;5063890;28;20466;-85
2022/03/15 11:05:37;;;;;;;0.80;0.60;;;11.30;81.30;;;;;;5068369;28;20456;-85
2022/03/15 11:08:06;;;;;;;0.30;0.10;;;11.30;80.10;;;;;;5058690;28;20464;-86
2022/03/15 11:10:33;;;;;;;0.40;0.30;;;11.30;82.70;;;;;;5069809;28;21071;-85
2022/03/15 11:13:06;;;;;;;0.30;0.20;;;11.60;80.00;;;;;;5064084;28;20472;-87
2022/03/15 11:15:39;;;;;;;0.50;0.50;;;11.30;78.80;;;;;;5068905;28;20457;-85
2022/03/15 11:18:08;;;;;;;1.70;0.70;;;11.30;79.10;;;;;;5056760;28;20492;-84
2022/03/15 11:20:36;;;;;;;0.30;0.20;;;11.10;79.40;;;;;;5049149;28;20473;-84
2022/03/15 11:23:05;;;;;;;0.40;0.30;;;11.30;80.20;;;;;;5060508;28;20456;-85
2022/03/15 11:25:36;;;;;;;0.40;0.30;;;11.00;79.50;;;;;;5058500;28;20458;-86
2022/03/15 11:28:08;;;;;;;0.30;0.20;;;11.20;80.90;;;;;;5062167;28;20506;-85
2022/03/15 11:30:35;;;;;;;0.67;0.40;;;11.30;79.60;;;;;;5054378;28;20517;-87
2022/03/15 11:33:04;;;;;;;0.30;0.20;;;11.50;78.40;;;;;;5066220;28;20547;-87
2022/03/15 11:35:33;;;;;;;0.40;0.20;;;11.60;78.50;;;;;;5062835;28;20449;-85
2022/03/15 11:38:02;;;;;;;0.40;0.20;;;11.80;77.20;;;;;;5062079;28;20459;-86
2022/03/15 11:40:29;;;;;;;0.40;0.30;;;11.90;77.50;;;;;;5052882;28;20493;-84
2022/03/15 11:43:15;;;;;;;0.80;0.80;;;11.70;76.20;;;;;;5052867;28;20492;-86
2022/03/15 11:45:45;;;;;;;0.30;0.20;;;11.60;74.70;;;;;;5068264;28;20463;-85
2022/03/15 11:48:16;;;;;;;0.30;0.30;;;11.60;75.80;;;;;;5057687;28;20453;-84
2022/03/15 11:50:58;;;;;;;0.60;0.60;;;11.60;75.50;;;;;;5065558;28;20614;-86
2022/03/15 11:53:37;;;;;;;1.23;0.47;;;11.80;77.20;;;;;;5062362;28;20444;-84
2022/03/15 11:56:11;;;;;;;0.57;0.57;;;12.40;76.10;;;;;;5066962;28;20456;-83
2022/03/15 11:58:40;;;;;;;0.30;0.20;;;12.00;72.30;;;;;;5056604;28;20463;-86
2022/03/15 12:01:12;;;;;;;0.30;0.20;;;12.00;74.10;;;;;;5066431;28;20456;-84
2022/03/15 12:03:47;;;;;;;0.30;0.20;;;12.30;75.60;;;;;;5062428;28;20486;-84
2022/03/15 12:06:19;;;;;;;0.30;0.20;;;12.40;72.90;;;;;;5065752;28;20530;-85
2022/03/15 12:08:53;;;;;;;0.40;0.23;;;12.60;74.00;;;;;;5065266;28;20452;-84
2022/03/15 12:11:34;;;;;;;0.40;0.30;;;12.50;74.10;;;;;;5060769;28;20869;-85
2022/03/15 12:14:07;;;;;;;0.40;0.20;;;12.10;73.10;;;;;;5059835;28;20460;-85
2022/03/15 12:16:42;;;;;;;2.43;0.70;;;11.80;75.20;;;;;;5061401;28;20456;-86
2022/03/15 12:19:23;;;;;;;0.30;0.20;;;11.80;75.50;;;;;;5067816;28;20447;-84
2022/03/15 12:21:54;;;;;;;0.30;0.20;;;12.00;75.30;;;;;;5072628;28;20456;-86
2022/03/15 12:24:30;;;;;;;0.50;0.40;;;12.00;74.00;;;;;;5068672;28;20452;-86
2022/03/15 12:27:01;;;;;;;0.37;0.27;;;12.10;74.90;;;;;;5078173;28;20574;-84
2022/03/15 12:29:31;;;;;;;0.40;0.30;;;12.10;74.80;;;;;;5058813;28;20457;-84
2022/03/15 12:32:09;;;;;;;1.53;0.50;;;12.20;74.40;;;;;;5067402;28;20455;-84
2022/03/15 12:34:36;;;;;;;0.30;0.20;;;12.30;74.00;;;;;;5067597;28;20974;-84
2022/03/15 12:37:07;;;;;;;1.57;0.60;;;12.50;75.10;;;;;;5066400;28;20866;-85
2022/03/15 12:39:35;;;;;;;0.97;0.67;;;12.40;74.60;;;;;;5068686;28;20902;-86
2022/03/15 12:42:07;;;;;;;0.60;0.30;;;12.30;74.10;;;;;;5070332;28;20451;-89
2022/03/15 12:44:45;;;;;;;0.70;0.23;;;12.40;73.80;;;;;;5066576;28;20974;-85
2022/03/15 12:47:14;;;;;;;0.43;0.40;;;12.40;73.70;;;;;;5068284;28;20494;-85
2022/03/15 12:49:42;;;;;;;0.40;0.23;;;12.40;75.00;;;;;;5054454;28;20467;-86
2022/03/15 12:52:13;;;;;;;0.30;0.20;;;12.20;75.20;;;;;;5066234;28;20517;-85
2022/03/15 12:54:41;;;;;;;1.90;0.40;;;12.10;75.00;;;;;;5069258;28;20534;-88
2022/03/15 12:57:10;;;;;;;0.30;0.20;;;12.30;74.60;;;;;;5066815;28;20451;-85
2022/03/15 12:59:38;;;;;;;0.30;0.20;;;12.30;74.90;;;;;;5070504;28;20483;-87
2022/03/15 13:02:07;;;;;;;3.23;0.63;;;12.40;75.00;;;;;;5068151;28;20523;-85